Список аэропортов
Фактическая погода:

21 августа, 07:00
Температура: +20°C (+20.0*)
Ветер: юго-восточный 3 м/с
Давление: *760 мм
разорв. обл.
810 м
Время (МСК)Темп. СВетерВлажностьДавлениеОблачностьОсадки
03:00+17В, 2 м/с94%1015 гПамалооблачно
04:00+16В, 2 м/с96%1015 гПас прояснениями
05:00+17В, 2 м/с97%1015 гПаоблачно
06:00+17В, 2 м/с98%1015 гПаоблачно
07:00+18В, 2 м/с96%1014 гПаоблачно
08:00+18В, 3 м/с95%1014 гПаоблачно
09:00+19В, 3 м/с93%1014 гПаоблачно
10:00+20В, 3 м/с91%1013 гПаоблачно
11:00+21В, 3 м/с84%1012 гПаоблачно
12:00+24В, 3 м/с74%1012 гПас прояснениями
13:00+26В, 4 м/с63%1011 гПамалооблачно
14:00+28В, 5 м/с57%1010 гПамалооблачно
15:00+29В, 5 м/с52%1010 гПамалооблачно
16:00+30В, 5 м/с47%1009 гПамалооблачно
17:00+29В, 5 м/с44%1009 гПамалооблачно
18:00+29ЮВ, 4 м/с49%1009 гПамалооблачно
19:00+27ЮВ, 2 м/с60%1009 гПамалооблачно
20:00+25В, 3 м/с72%1009 гПамалооблачнодождь
21:00+24В, 5 м/с72%1009 гПамалооблачно
22:00+23В, 5 м/с72%1009 гПаясно
23:00+22В, 5 м/с77%1009 гПаясно
22 августа
00:00+22В, 5 м/с81%1009 гПамалооблачно
01:00+21В, 5 м/с83%1008 гПас прояснениями
02:00+21В, 4 м/с86%1008 гПамалооблачно
03:00+20В, 4 м/с90%1008 гПамалооблачно
04:00+20ЮВ, 4 м/с93%1007 гПас прояснениями
05:00+20В, 3 м/с92%1007 гПаоблачно
06:00+20В, 4 м/с91%1007 гПаоблачно
07:00+21В, 4 м/с89%1007 гПаоблачно
08:00+22В, 4 м/с85%1007 гПаоблачно
09:00+23В, 4 м/с82%1007 гПаоблачно
10:00+24В, 3 м/с75%1007 гПаоблачно
11:00+27В, 3 м/с65%1006 гПас прояснениями
12:00+29В, 4 м/с57%1006 гПамалооблачно
13:00+30В, 4 м/с51%1005 гПаясно
14:00+31В, 4 м/с47%1005 гПаясно
15:00+32В, 4 м/с43%1004 гПаясно
16:00+33В, 4 м/с40%1004 гПаясно
17:00+32ЮВ, 4 м/с38%1004 гПаясно
18:00+32ЮВ, 4 м/с40%1004 гПаясно
19:00+29ЮВ, 2 м/с52%1005 гПаясно
20:00+26В, 2 м/с61%1006 гПаясно
21:00+25ЮВ, 3 м/с60%1006 гПаясно
22:00+24ЮВ, 2 м/с55%1006 гПаясно
23:00+22В, 2 м/с58%1006 гПаясно
23 августа
00:00+21В, 1 м/с66%1007 гПаясно
01:00+20ЮВ, 1 м/с70%1007 гПаясно
02:00+19Ю, 1 м/с77%1007 гПаясно
03:00+18Ю, 1 м/с81%1007 гПаясно